Latest Weather Observations for Bradshaw-Angallari Valley (Defence)

IDD60801

Issued at 11:21 pm CST Sunday 25 October 2020 (issued every 10 minutes, with the page automatically refreshed every 10 minutes)

About weather observations | Map of weather stations | Latest weather observations for NT | Other Formats
Station Details ID: 014808 Name: BRADSHAW - ANGALLARI VALLEY (DEFENCE) Lat: -15.44 Lon: 130.57 Height: 60.0 m
Data from the previous 72 hours. | See also: Recent months at Bradshaw-Angallari Valley (Defence)
Date/Time
CST
Temp
°C
App
Temp
°C
Dew
Point
°C
Rel
Hum
%
Delta-T
°C
Wind Press
QNH
hPa
Press
MSL
hPa
Rain since
9am
mm
Dir  Spd
km/h
Gust
km/h
Spd
kts
Gust
kts
25/11:00pm 28.4 32.3 21.9 68 4.4 SW 4 6 2 3 1008.2 1007.7 6.8
25/10:30pm 28.6 31.6 21.9 67 4.5 NW 9 13 5 7 1007.9 1007.4 6.8
25/10:00pm 28.8 32.3 21.8 66 4.7 NNW 6 9 3 5 1008.1 1007.6 6.8
25/09:30pm 29.2 33.1 21.9 64 4.9 WNW 4 6 2 3 1008.4 1007.9 6.8
25/09:00pm 29.1 33.3 21.8 64 4.9 SW 2 4 1 2 1008.2 1007.7 6.8
25/08:30pm 29.5 32.5 20.9 60 5.7 SW 6 7 3 4 1007.6 1007.1 6.8
25/08:00pm 29.8 33.0 21.2 60 5.8 SW 6 9 3 5 1007.0 1006.5 6.8
25/07:30pm 30.1 32.9 20.9 57 6.2 W 7 9 4 5 1006.9 1006.4 6.8
25/07:00pm 30.9 32.5 19.9 52 7.3 S 11 17 6 9 1006.8 1006.3 6.8
25/06:30pm 31.4 33.1 19.4 49 7.9 WSW 9 20 5 11 1006.8 1006.3 6.8
25/06:00pm 31.8 33.7 19.8 49 7.9 WNW 9 13 5 7 1007.2 1006.7 6.8
25/05:30pm 32.3 34.0 18.1 42 9.2 ESE 6 7 3 4 1007.0 1006.5 6.8
25/05:00pm 32.3 34.0 18.1 42 9.2 WNW 6 11 3 6 1005.7 1005.2 6.8
25/04:30pm 31.4 32.8 17.7 44 8.8 NW 7 11 4 6 1005.1 1004.6 6.8
25/04:00pm 30.7 30.1 18.4 47 7.9 N 19 32 10 17 1005.1 1004.6 6.8
25/03:30pm 30.6 30.3 19.6 51 7.2 N 20 39 11 21 1006.0 1005.5 6.8
25/03:03pm 27.7 26.3 20.5 65 4.7 N 28 46 15 25 1006.8 1006.3 6.8
25/03:00pm 26.9 25.2 19.8 65 4.6 N 28 44 15 24 1006.8 1006.3 6.8
25/02:57pm 26.1 24.3 19.5 67 4.3 N 28 44 15 24 1007.0 1006.5 6.8
25/02:30pm 27.2 27.7 20.0 64 4.7 NNE 17 41 9 22 1007.5 1007.0 6.8
25/02:13pm 29.0 30.0 20.2 59 5.8 W 15 35 8 19 1007.8 1007.3 2.2
25/02:00pm 34.5 36.1 20.8 44 9.2 NNE 13 20 7 11 1006.8 1006.3 0.8
25/01:30pm 32.7 34.2 21.2 50 7.8 NNE 15 28 8 15 1007.2 1006.7 0.8
25/01:19pm 32.4 33.3 19.3 46 8.6 WNW 13 32 7 17 1007.9 1007.4 0.8
25/01:00pm 37.5 38.4 17.5 30 13.0 NW 9 19 5 10 1007.8 1007.3 0.0
25/12:30pm 38.6 39.9 18.4 30 13.4 NNW 9 20 5 11 1008.4 1007.9 0.0
25/12:00pm 37.6 38.8 19.0 33 12.4 NW 11 24 6 13 1008.8 1008.3 0.0
25/11:30am 36.9 38.0 18.9 34 11.9 NW 11 32 6 17 1009.3 1008.8 0.0
25/11:00am 35.3 36.5 20.0 40 10.2 W 13 20 7 11 1009.8 1009.3 0.0
25/10:30am 33.8 37.0 21.6 49 8.3 N 7 17 4 9 1010.4 1009.9 0.0
25/10:00am 33.0 36.1 22.1 52 7.4 N 9 13 5 7 1010.8 1010.3 0.0
25/09:30am 32.0 36.1 23.3 60 6.0 N 7 13 4 7 1010.9 1010.4 0.0
25/09:00am 30.1 34.0 23.0 65 4.9 N 7 13 4 7 1011.0 1010.5 0.0
25/08:30am 29.5 33.1 23.0 68 4.5 N 9 13 5 7 1011.0 1010.5 0.0
25/08:00am 28.8 32.3 22.8 70 4.1 NNE 9 15 5 8 1010.9 1010.4 0.0
25/07:30am 28.0 31.4 22.7 73 3.6 NE 9 13 5 7 1010.4 1009.9 0.0
25/07:00am 27.1 30.8 22.5 76 3.1 NE 7 13 4 7 1010.0 1009.5 0.0
25/06:30am 26.3 30.0 22.2 78 2.8 NE 6 9 3 5 1009.4 1008.9 0.0
25/06:00am 26.6 30.2 22.0 76 3.1 NNW 6 7 3 4 1008.8 1008.3 0.0
25/05:30am 26.2 30.2 22.1 78 2.8 N 4 7 2 4 1008.6 1008.1 0.0
25/05:00am 26.2 30.4 21.8 77 2.9 N 2 4 1 2 1008.4 1007.9 0.0
25/04:30am 26.5 31.0 21.5 74 3.3 CALM 0 4 0 2 1008.0 1007.5 0.0
25/04:00am 26.7 30.4 21.5 73 3.5 NNW 4 6 2 3 1007.6 1007.1 0.0
25/03:30am 26.9 30.9 21.4 72 3.7 NW 2 6 1 3 1007.8 1007.3 0.0
25/03:00am 27.3 31.1 20.9 68 4.2 NW 2 2 1 1 1008.0 1007.5 0.0
25/02:30am 28.0 31.0 20.8 65 4.8 WNW 6 7 3 4 1008.2 1007.7 0.0
25/02:00am 28.7 30.5 20.4 60 5.5 WNW 11 19 6 10 1008.2 1007.7 0.0
25/01:30am 28.7 31.8 20.2 60 5.6 WNW 4 9 2 5 1008.3 1007.8 0.0
25/01:00am 29.3 32.0 20.2 58 6.0 NW 6 9 3 5 1008.4 1007.9 0.0
25/12:30am 29.6 31.3 19.3 54 6.7 WNW 9 15 5 8 1008.4 1007.9 0.0
25/12:00am 29.7 30.5 15.8 43 8.6 W 6 11 3 6 1008.8 1008.3 0.0
 
Date/Time
CST
Temp
°C
App
Temp
°C
Dew
Point
°C
Rel
Hum
%
Delta-T
°C
Wind Press
QNH
hPa
Press
MSL
hPa
Rain since
9am
mm
Dir  Spd
km/h
Gust
km/h
Spd
kts
Gust
kts
24/11:30pm 30.1 30.7 14.2 38 9.6 W 4 9 2 5 1009.2 1008.7 0.0
24/11:00pm 30.4 30.4 13.7 36 10.0 NW 6 9 3 5 1009.2 1008.7 0.0
24/10:30pm 30.7 31.3 14.3 36 10.0 W 4 7 2 4 1009.4 1008.9 0.0
24/10:00pm 31.4 32.2 13.6 33 10.7 SSW 2 6 1 3 1009.4 1008.9 0.0
24/09:30pm 32.2 32.0 12.9 31 11.6 W 6 9 3 5 1008.8 1008.3 0.0
24/09:00pm 33.0 32.5 12.6 29 12.2 WNW 7 11 4 6 1008.4 1007.9 0.0
24/08:30pm 33.7 32.6 12.1 27 12.9 WNW 9 13 5 7 1007.9 1007.4 0.0
24/08:00pm 34.1 33.4 11.9 26 13.2 WNW 7 11 4 6 1007.6 1007.1 0.0
24/07:30pm 34.7 34.1 12.4 26 13.4 WNW 7 11 4 6 1007.0 1006.5 0.0
24/07:00pm 35.2 34.2 12.2 25 13.8 WSW 9 15 5 8 1007.0 1006.5 0.0
24/06:30pm 35.8 34.2 12.7 25 14.0 WSW 13 22 7 12 1006.6 1006.1 0.0
24/06:00pm 36.6 34.4 12.1 23 14.8 W 15 22 8 12 1006.2 1005.7 0.0
24/05:30pm 37.0 34.1 12.4 23 14.9 NW 19 32 10 17 1005.8 1005.3 0.0
24/05:00pm 38.8 36.0 13.2 21 15.8 WNW 20 32 11 17 1005.6 1005.1 0.0
24/04:30pm 39.3 36.9 13.7 22 16.0 NW 19 32 10 17 1005.5 1005.0 0.0
24/04:00pm 39.5 37.7 14.5 23 15.7 NW 17 32 9 17 1005.4 1004.9 0.0
24/03:30pm 39.8 37.8 12.6 20 16.7 W 15 24 8 13 1005.9 1005.4 0.0
24/03:00pm 40.2 38.4 12.1 19 17.2 WSW 13 24 7 13 1006.3 1005.8 0.0
24/02:30pm 39.3 38.7 12.2 20 16.5 W 7 13 4 7 1006.7 1006.2 0.0
24/02:00pm 39.6 37.8 13.2 21 16.3 W 15 26 8 14 1007.2 1006.7 0.0
24/01:30pm 39.0 37.8 12.7 21 16.1 W 11 20 6 11 1007.7 1007.2 0.0
24/01:00pm 38.8 37.1 12.5 21 16.1 W 13 22 7 12 1008.6 1008.1 0.0
24/12:30pm 38.0 36.0 12.6 22 15.5 WNW 15 26 8 14 1009.3 1008.8 0.0
24/12:00pm 38.1 35.9 12.0 21 15.8 W 15 24 8 13 1009.8 1009.3 0.0
24/11:30am 37.3 35.9 13.3 23 14.7 WNW 13 24 7 13 1010.2 1009.7 0.0
24/11:00am 36.5 35.3 15.0 27 13.5 WNW 15 20 8 11 1010.6 1010.1 0.0
24/10:30am 34.7 34.6 16.1 33 11.8 NW 11 20 6 11 1011.2 1010.7 0.0
24/10:00am 33.3 34.4 17.9 40 10.0 WNW 9 19 5 10 1011.6 1011.1 0.0
24/09:30am 32.1 34.3 19.7 48 8.2 WNW 7 13 4 7 1011.8 1011.3 0.0
24/09:00am 30.9 33.8 21.1 56 6.6 NNW 7 11 4 6 1011.9 1011.4 0.0
24/08:30am 30.1 33.4 21.5 60 5.8 NNW 6 11 3 6 1011.4 1010.9 0.0
24/08:00am 28.7 32.9 22.4 68 4.3 N 4 6 2 3 1011.0 1010.5 0.0
24/07:30am 27.7 32.4 22.6 74 3.5 NNE 2 6 1 3 1010.5 1010.0 0.0
24/07:00am 27.2 31.4 22.4 75 3.2 NNE 4 6 2 3 1010.2 1009.7 0.0
24/06:30am 26.7 31.2 22.3 77 3.0 NNE 2 4 1 2 1009.8 1009.3 0.0
24/06:00am 26.9 30.8 21.9 74 3.4 NNE 4 6 2 3 1009.6 1009.1 0.0
24/05:30am 27.0 30.4 21.7 73 3.6 NNE 6 7 3 4 1009.3 1008.8 0.0
24/05:00am 27.0 30.7 22.2 75 3.2 NE 6 9 3 5 1009.0 1008.5 0.0
24/04:30am 26.8 31.1 22.0 75 3.2 WNW 2 6 1 3 1008.8 1008.3 0.0
24/04:00am 26.9 31.7 22.1 75 3.2 CALM 0 0 0 0 1008.5 1008.0 0.0
24/03:30am 27.4 31.8 21.4 70 4.0 CALM 0 0 0 0 1008.4 1007.9 0.0
24/03:00am 27.9 31.8 21.2 67 4.5 WNW 2 4 1 2 1008.2 1007.7 0.0
24/02:30am 28.4 31.4 20.9 64 5.0 WNW 6 9 3 5 1008.3 1007.8 0.0
24/02:00am 28.6 31.3 20.6 62 5.3 NW 7 13 4 7 1008.5 1008.0 0.0
24/01:30am 28.5 31.3 19.7 59 5.8 WNW 4 7 2 4 1008.6 1008.1 0.0
24/01:00am 28.4 31.0 19.3 57 5.9 NNW 4 6 2 3 1008.8 1008.3 0.0
24/12:30am 27.5 30.9 20.1 64 4.9 NE 2 6 1 3 1009.0 1008.5 0.0
24/12:00am 27.8 31.4 19.8 61 5.2 CALM 0 0 0 0 1009.1 1008.6 0.0
 
Date/Time
CST
Temp
°C
App
Temp
°C
Dew
Point
°C
Rel
Hum
%
Delta-T
°C
Wind Press
QNH
hPa
Press
MSL
hPa
Rain since
9am
mm
Dir  Spd
km/h
Gust
km/h
Spd
kts
Gust
kts
23/11:30pm 28.7 32.2 20.4 60 5.5 NNW 2 2 1 1 1008.9 1008.4 0.0
23/11:00pm 29.6 31.4 18.4 51 7.2 NNW 6 9 3 5 1009.2 1008.7 0.0
23/10:30pm 29.3 31.7 19.6 56 6.4 NW 6 7 3 4 1009.3 1008.8 0.0
23/10:00pm 30.1 32.7 20.1 55 6.6 W 6 9 3 5 1009.5 1009.0 0.0
23/09:30pm 30.8 33.4 20.4 54 6.9 WSW 7 11 4 6 1009.1 1008.6 0.0
23/09:00pm 31.4 34.0 20.4 52 7.3 W 7 15 4 8 1008.8 1008.3 0.0
23/08:30pm 32.1 34.1 20.0 48 8.0 W 9 17 5 9 1008.4 1007.9 0.0
23/08:00pm 33.0 35.5 19.8 45 8.7 W 6 13 3 7 1008.0 1007.5 0.0
23/07:30pm 33.8 35.2 17.9 38 10.3 W 7 13 4 7 1007.7 1007.2 0.0
23/07:00pm 34.6 34.7 15.5 32 12.0 WNW 9 19 5 10 1007.3 1006.8 0.0
23/06:30pm 35.6 36.2 16.8 32 12.1 WNW 9 15 5 8 1006.8 1006.3 0.0
23/06:00pm 36.7 37.5 16.3 30 13.1 NW 7 13 4 7 1006.2 1005.7 0.0
23/05:30pm 37.4 37.4 15.2 26 14.0 WNW 9 19 5 10 1006.2 1005.7 0.0
23/05:00pm 37.8 37.4 16.1 27 13.9 NW 13 20 7 11 1006.0 1005.5 0.0
23/04:30pm 37.5 37.4 15.9 28 13.8 NW 11 24 6 13 1006.0 1005.5 0.0
23/04:00pm 37.9 36.7 15.1 26 14.4 NW 15 20 8 11 1006.2 1005.7 0.0
23/03:30pm 36.7 37.7 17.8 32 12.3 NW 9 17 5 9 1006.7 1006.2 0.0
23/03:00pm 36.1 36.9 18.2 34 11.7 WNW 11 20 6 11 1007.3 1006.8 0.0
23/02:30pm 36.3 36.2 17.0 32 12.5 NW 13 19 7 10 1007.7 1007.2 0.0
23/02:00pm 35.2 34.7 16.0 31 12.2 WNW 13 20 7 11 1008.1 1007.6 0.0
23/01:30pm 35.3 35.1 16.6 33 12.0 WNW 13 19 7 10 1008.7 1008.2 0.0
23/01:00pm 34.5 35.8 18.5 38 10.5 WNW 9 17 5 9 1009.3 1008.8 0.0
23/12:30pm 33.8 36.0 19.1 42 9.7 WNW 6 11 3 6 1009.8 1009.3 0.0
23/12:00pm 33.3 34.8 19.0 42 9.4 NNW 9 15 5 8 1010.3 1009.8 0.0
23/11:30am 32.8 34.3 19.7 46 8.7 NNW 11 17 6 9 1010.4 1009.9 0.0
23/11:00am 32.1 35.4 22.5 57 6.6 NNW 9 19 5 10 1010.5 1010.0 0.0
23/10:30am 31.0 34.5 22.9 62 5.6 NNW 9 20 5 11 1010.8 1010.3 0.0
23/10:00am 30.3 34.3 23.7 68 4.6 N 9 17 5 9 1011.1 1010.6 0.0
23/09:30am 29.4 33.6 23.1 69 4.3 N 6 9 3 5 1011.2 1010.7 0.0
23/09:00am 28.6 33.0 23.5 74 3.5 N 6 9 3 5 1011.0 1010.5 5.2
23/08:30am 28.0 32.7 24.0 79 2.8 N 6 13 3 7 1011.1 1010.6 5.2
23/08:00am 27.6 33.4 24.6 84 2.1 SSW 2 6 1 3 1011.0 1010.5 5.0
23/07:30am 28.3 34.2 24.1 78 2.9 CALM 0 6 0 3 1010.8 1010.3 4.8
23/07:00am 28.3 34.1 23.9 77 3.0 CALM 0 0 0 0 1010.3 1009.8 4.2
23/06:30am 28.0 33.1 23.4 76 3.2 SSW 2 6 1 3 1010.0 1009.5 4.2
23/06:00am 27.6 32.8 22.8 75 3.3 CALM 0 2 0 1 1009.6 1009.1 4.2
23/05:30am 27.5 31.7 22.4 73 3.5 SSW 4 6 2 3 1009.1 1008.6 4.2
23/05:00am 28.0 32.3 21.1 66 4.6 CALM 0 2 0 1 1008.6 1008.1 4.2
23/04:30am 28.3 31.5 19.8 60 5.6 SSW 2 6 1 3 1008.3 1007.8 4.2
23/04:00am 28.6 30.4 18.4 54 6.5 WSW 6 9 3 5 1008.1 1007.6 4.2
23/03:30am 28.5 31.2 19.4 57 5.9 WNW 4 7 2 4 1007.7 1007.2 4.2
23/03:00am 27.7 31.0 21.5 69 4.2 WSW 6 7 3 4 1008.0 1007.5 4.2
23/02:30am 27.7 30.9 20.5 65 4.8 NNE 4 6 2 3 1007.5 1007.0 4.2
23/02:00am 26.9 31.7 22.1 75 3.2 CALM 0 0 0 0 1007.5 1007.0 4.2
23/01:30am 27.2 31.5 21.9 73 3.6 N 2 6 1 3 1007.8 1007.3 4.2
23/01:00am 28.0 32.1 20.8 65 4.8 CALM 0 0 0 0 1008.4 1007.9 4.2
23/12:30am 28.6 31.1 19.8 59 5.8 N 6 9 3 5 1008.5 1008.0 4.2
23/12:00am 29.1 32.4 20.0 58 6.0 WNW 2 6 1 3 1008.9 1008.4 4.2
 
Date/Time
CST
Temp
°C
App
Temp
°C
Dew
Point
°C
Rel
Hum
%
Delta-T
°C
Wind Press
QNH
hPa
Press
MSL
hPa
Rain since
9am
mm
Dir  Spd
km/h
Gust
km/h
Spd
kts
Gust
kts
22/11:30pm 30.2 33.2 19.3 52 7.1 WNW 2 6 1 3 1009.5 1009.0 4.2

Other formats

Comma delimited format used in spreadsheet applications
http://www.bom.gov.au/fwo/IDD60801/IDD60801.94221.axf

JavaScript Object Notation format (JSON) in row-major order
http://www.bom.gov.au/fwo/IDD60801/IDD60801.94221.json

Data quality

Most of these data are generated automatically and are frequently updated. Quality checks on data are not normally performed. It is possible for incorrect values to appear. Refer to information at About Latest Weather Observations and please check the disclaimer before using these data.